sensor_id;sensor_type;location;lat;lon;timestamp;pressure;altitude;pressure_sealevel;temperature;humidity
72110;BME280;59983;52.010;5.420;2023-10-09T00:01:44;101984.06;;;14.25;100.00
72110;BME280;59983;52.010;5.420;2023-10-09T00:04:12;101979.75;;;14.24;100.00
72110;BME280;59983;52.010;5.420;2023-10-09T00:06:43;101990.31;;;14.25;100.00
72110;BME280;59983;52.010;5.420;2023-10-09T00:09:10;101979.63;;;14.20;100.00
72110;BME280;59983;52.010;5.420;2023-10-09T00:11:49;101982.25;;;14.16;100.00
72110;BME280;59983;52.010;5.420;2023-10-09T00:14:26;101978.59;;;14.12;100.00
72110;BME280;59983;52.010;5.420;2023-10-09T00:16:57;101989.06;;;14.10;100.00
72110;BME280;59983;52.010;5.420;2023-10-09T00:19:48;101985.88;;;14.08;100.00
72110;BME280;59983;52.010;5.420;2023-10-09T00:22:19;101974.72;;;14.01;100.00
72110;BME280;59983;52.010;5.420;2023-10-09T00:24:46;101973.72;;;14.06;100.00
72110;BME280;59983;52.010;5.420;2023-10-09T00:27:16;101966.22;;;14.15;100.00
72110;BME280;59983;52.010;5.420;2023-10-09T00:29:46;101965.19;;;14.20;100.00
72110;BME280;59983;52.010;5.420;2023-10-09T00:32:12;101974.28;;;14.24;100.00
72110;BME280;59983;52.010;5.420;2023-10-09T00:34:49;101982.94;;;14.26;100.00
72110;BME280;59983;52.010;5.420;2023-10-09T00:37:17;101977.81;;;14.24;100.00
72110;BME280;59983;52.010;5.420;2023-10-09T00:39:52;101977.59;;;14.17;100.00
72110;BME280;59983;52.010;5.420;2023-10-09T00:42:25;101989.19;;;14.14;100.00
72110;BME280;59983;52.010;5.420;2023-10-09T00:44:56;101977.34;;;14.10;100.00
72110;BME280;59983;52.010;5.420;2023-10-09T00:47:23;101984.63;;;14.06;100.00
72110;BME280;59983;52.010;5.420;2023-10-09T00:50:04;101986.78;;;14.00;100.00
72110;BME280;59983;52.010;5.420;2023-10-09T00:52:51;101989.31;;;14.05;100.00
72110;BME280;59983;52.010;5.420;2023-10-09T00:55:27;101985.88;;;14.08;100.00
72110;BME280;59983;52.010;5.420;2023-10-09T00:58:12;101976.66;;;14.13;100.00
72110;BME280;59983;52.010;5.420;2023-10-09T01:00:41;101967.47;;;14.17;100.00
72110;BME280;59983;52.010;5.420;2023-10-09T01:03:18;101964.50;;;14.23;100.00
72110;BME280;59983;52.010;5.420;2023-10-09T01:05:51;101970.53;;;14.16;100.00
72110;BME280;59983;52.010;5.420;2023-10-09T01:08:27;101966.22;;;14.15;100.00
72110;BME280;59983;52.010;5.420;2023-10-09T01:10:59;101963.59;;;14.18;100.00
72110;BME280;59983;52.010;5.420;2023-10-09T01:13:37;101964.72;;;14.17;100.00
72110;BME280;59983;52.010;5.420;2023-10-09T01:16:17;101957.34;;;14.18;100.00
72110;BME280;59983;52.010;5.420;2023-10-09T01:21:16;101960.88;;;14.06;100.00
72110;BME280;59983;52.010;5.420;2023-10-09T01:23:45;101957.34;;;14.06;100.00
72110;BME280;59983;52.010;5.420;2023-10-09T01:26:38;101956.22;;;14.07;100.00
72110;BME280;59983;52.010;5.420;2023-10-09T01:29:22;101955.88;;;14.08;100.00
72110;BME280;59983;52.010;5.420;2023-10-09T01:31:56;101945.97;;;14.16;100.00
72110;BME280;59983;52.010;5.420;2023-10-09T01:34:33;101943.69;;;14.18;100.00
72110;BME280;59983;52.010;5.420;2023-10-09T01:37:20;101944.59;;;14.22;100.00
72110;BME280;59983;52.010;5.420;2023-10-09T01:39:53;101942.00;;;14.26;100.00
72110;BME280;59983;52.010;5.420;2023-10-09T01:42:25;101948.47;;;14.33;100.00
72110;BME280;59983;52.010;5.420;2023-10-09T01:45:02;101945.84;;;14.37;100.00
72110;BME280;59983;52.010;5.420;2023-10-09T01:47:38;101938.44;;;14.37;100.00
72110;BME280;59983;52.010;5.420;2023-10-09T01:50:06;101933.78;;;14.38;100.00
72110;BME280;59983;52.010;5.420;2023-10-09T01:52:38;101931.97;;;14.42;100.00
72110;BME280;59983;52.010;5.420;2023-10-09T01:55:05;101931.06;;;14.50;100.00
72110;BME280;59983;52.010;5.420;2023-10-09T01:57:33;101917.97;;;14.56;100.00
72110;BME280;59983;52.010;5.420;2023-10-09T02:00:00;101929.44;;;14.61;100.00
72110;BME280;59983;52.010;5.420;2023-10-09T02:02:28;101930.59;;;14.60;100.00
72110;BME280;59983;52.010;5.420;2023-10-09T02:05:09;101930.47;;;14.57;100.00
72110;BME280;59983;52.010;5.420;2023-10-09T02:07:37;101920.34;;;14.57;100.00
72110;BME280;59983;52.010;5.420;2023-10-09T02:10:08;101915.34;;;14.59;100.00
72110;BME280;59983;52.010;5.420;2023-10-09T02:12:48;101911.91;;;14.62;100.00
72110;BME280;59983;52.010;5.420;2023-10-09T02:15:20;101910.78;;;14.63;100.00
72110;BME280;59983;52.010;5.420;2023-10-09T02:18:06;101909.53;;;14.61;100.00
72110;BME280;59983;52.010;5.420;2023-10-09T02:20:47;101907.16;;;14.59;100.00
72110;BME280;59983;52.010;5.420;2023-10-09T02:23:21;101901.69;;;14.59;100.00
72110;BME280;59983;52.010;5.420;2023-10-09T02:25:59;101905.66;;;14.62;100.00
72110;BME280;59983;52.010;5.420;2023-10-09T02:28:29;101901.00;;;14.62;100.00
72110;BME280;59983;52.010;5.420;2023-10-09T02:30:59;101903.72;;;14.62;100.00
72110;BME280;59983;52.010;5.420;2023-10-09T02:33:28;101894.75;;;14.62;100.00
72110;BME280;59983;52.010;5.420;2023-10-09T02:35:55;101890.94;;;14.66;100.00
72110;BME280;59983;52.010;5.420;2023-10-09T02:38:25;101895.63;;;14.66;100.00
72110;BME280;59983;52.010;5.420;2023-10-09T02:40:52;101891.31;;;14.65;100.00
72110;BME280;59983;52.010;5.420;2023-10-09T02:43:45;101886.53;;;14.62;100.00
72110;BME280;59983;52.010;5.420;2023-10-09T02:46:18;101874.03;;;14.61;100.00
72110;BME280;59983;52.010;5.420;2023-10-09T02:48:47;101872.66;;;14.67;100.00
72110;BME280;59983;52.010;5.420;2023-10-09T02:51:25;101879.09;;;14.74;100.00
72110;BME280;59983;52.010;5.420;2023-10-09T02:54:02;101874.25;;;14.68;100.00
72110;BME280;59983;52.010;5.420;2023-10-09T02:56:49;101871.31;;;14.61;100.00
72110;BME280;59983;52.010;5.420;2023-10-09T02:59:23;101860.38;;;14.61;100.00
72110;BME280;59983;52.010;5.420;2023-10-09T03:01:50;101867.19;;;14.67;100.00
72110;BME280;59983;52.010;5.420;2023-10-09T03:04:20;101874.91;;;14.65;100.00
72110;BME280;59983;52.010;5.420;2023-10-09T03:06:50;101860.25;;;14.57;100.00
72110;BME280;59983;52.010;5.420;2023-10-09T03:09:18;101858.00;;;14.59;100.00
72110;BME280;59983;52.010;5.420;2023-10-09T03:11:49;101850.25;;;14.61;100.00
72110;BME280;59983;52.010;5.420;2023-10-09T03:14:21;101857.66;;;14.61;100.00
72110;BME280;59983;52.010;5.420;2023-10-09T03:16:47;101846.81;;;14.64;100.00
72110;BME280;59983;52.010;5.420;2023-10-09T03:19:17;101851.06;;;14.62;100.00
72110;BME280;59983;52.010;5.420;2023-10-09T03:21:44;101856.88;;;14.60;100.00
72110;BME280;59983;52.010;5.420;2023-10-09T03:24:10;101844.72;;;14.58;100.00
72110;BME280;59983;52.010;5.420;2023-10-09T03:26:38;101833.88;;;14.61;100.00
72110;BME280;59983;52.010;5.420;2023-10-09T03:29:04;101839.06;;;14.66;100.00
72110;BME280;59983;52.010;5.420;2023-10-09T03:31:33;101835.53;;;14.66;100.00
72110;BME280;59983;52.010;5.420;2023-10-09T03:34:00;101834.56;;;14.58;100.00
72110;BME280;59983;52.010;5.420;2023-10-09T03:36:26;101837.31;;;14.58;100.00
72110;BME280;59983;52.010;5.420;2023-10-09T03:38:53;101833.78;;;14.58;100.00
72110;BME280;59983;52.010;5.420;2023-10-09T03:41:25;101828.22;;;14.54;100.00
72110;BME280;59983;52.010;5.420;2023-10-09T03:43:53;101830.59;;;14.56;100.00
72110;BME280;59983;52.010;5.420;2023-10-09T03:46:21;101821.72;;;14.59;100.00
72110;BME280;59983;52.010;5.420;2023-10-09T03:48:59;101816.44;;;14.66;100.00
72110;BME280;59983;52.010;5.420;2023-10-09T03:51:29;101832.94;;;14.69;100.00
72110;BME280;59983;52.010;5.420;2023-10-09T03:53:56;101838.81;;;14.71;100.00
72110;BME280;59983;52.010;5.420;2023-10-09T03:56:22;101850.47;;;14.68;100.00
72110;BME280;59983;52.010;5.420;2023-10-09T03:58:50;101882.75;;;14.66;100.00
72110;BME280;59983;52.010;5.420;2023-10-09T04:01:19;101898.72;;;14.64;100.00
72110;BME280;59983;52.010;5.420;2023-10-09T04:03:57;101899.06;;;14.63;100.00
72110;BME280;59983;52.010;5.420;2023-10-09T04:06:28;101896.75;;;14.65;100.00
72110;BME280;59983;52.010;5.420;2023-10-09T04:09:08;101890.38;;;14.73;100.00
72110;BME280;59983;52.010;5.420;2023-10-09T04:11:40;101890.47;;;14.77;100.00
72110;BME280;59983;52.010;5.420;2023-10-09T04:14:13;101884.66;;;14.78;100.00
72110;BME280;59983;52.010;5.420;2023-10-09T04:17:00;101876.69;;;14.85;100.00
72110;BME280;59983;52.010;5.420;2023-10-09T04:19:53;101880.06;;;14.94;100.00
72110;BME280;59983;52.010;5.420;2023-10-09T04:22:38;101870.00;;;14.98;100.00
72110;BME280;59983;52.010;5.420;2023-10-09T04:25:06;101873.38;;;15.08;100.00
72110;BME280;59983;52.010;5.420;2023-10-09T04:27:55;101874.53;;;15.22;100.00
72110;BME280;59983;52.010;5.420;2023-10-09T04:30:46;101880.63;;;15.32;100.00
72110;BME280;59983;52.010;5.420;2023-10-09T04:33:14;101873.06;;;15.41;100.00
72110;BME280;59983;52.010;5.420;2023-10-09T04:36:01;101872.78;;;15.46;100.00
72110;BME280;59983;52.010;5.420;2023-10-09T04:38:56;101874.09;;;15.52;100.00
72110;BME280;59983;52.010;5.420;2023-10-09T04:41:32;101864.84;;;15.56;100.00
72110;BME280;59983;52.010;5.420;2023-10-09T04:44:00;101852.41;;;15.59;100.00
72110;BME280;59983;52.010;5.420;2023-10-09T04:46:46;101840.69;;;15.58;100.00
72110;BME280;59983;52.010;5.420;2023-10-09T04:49:36;101862.19;;;15.60;100.00
72110;BME280;59983;52.010;5.420;2023-10-09T04:52:32;101855.59;;;15.61;100.00
72110;BME280;59983;52.010;5.420;2023-10-09T04:55:00;101853.31;;;15.63;100.00
72110;BME280;59983;52.010;5.420;2023-10-09T04:57:36;101852.19;;;15.64;100.00
72110;BME280;59983;52.010;5.420;2023-10-09T05:00:14;101849.88;;;15.66;100.00
72110;BME280;59983;52.010;5.420;2023-10-09T05:02:49;101849.88;;;15.66;100.00
72110;BME280;59983;52.010;5.420;2023-10-09T05:05:26;101856.94;;;15.67;100.00
72110;BME280;59983;52.010;5.420;2023-10-09T05:08:05;101865.13;;;15.67;100.00
72110;BME280;59983;52.010;5.420;2023-10-09T05:10:49;101864.84;;;15.72;100.00
72110;BME280;59983;52.010;5.420;2023-10-09T05:13:34;101863.38;;;15.75;100.00
72110;BME280;59983;52.010;5.420;2023-10-09T05:16:18;101868.56;;;15.80;100.00
72110;BME280;59983;52.010;5.420;2023-10-09T05:18:46;101863.44;;;15.78;100.00
72110;BME280;59983;52.010;5.420;2023-10-09T05:21:24;101858.88;;;15.82;100.00
72110;BME280;59983;52.010;5.420;2023-10-09T05:23:57;101863.97;;;15.84;100.00
72110;BME280;59983;52.010;5.420;2023-10-09T05:26:41;101865.19;;;15.86;100.00
72110;BME280;59983;52.010;5.420;2023-10-09T05:29:28;101866.41;;;15.89;100.00
72110;BME280;59983;52.010;5.420;2023-10-09T05:32:01;101873.16;;;15.92;100.00
72110;BME280;59983;52.010;5.420;2023-10-09T05:34:42;101870.06;;;15.93;100.00
72110;BME280;59983;52.010;5.420;2023-10-09T05:37:31;101886.19;;;15.98;100.00
72110;BME280;59983;52.010;5.420;2023-10-09T05:40:05;101891.66;;;15.98;100.00
72110;BME280;59983;52.010;5.420;2023-10-09T05:42:46;101894.50;;;16.02;100.00
72110;BME280;59983;52.010;5.420;2023-10-09T05:45:24;101887.44;;;16.01;100.00
72110;BME280;59983;52.010;5.420;2023-10-09T05:48:10;101900.41;;;16.04;100.00
72110;BME280;59983;52.010;5.420;2023-10-09T05:50:40;101900.41;;;16.04;100.00
72110;BME280;59983;52.010;5.420;2023-10-09T05:53:35;101912.56;;;16.06;100.00
72110;BME280;59983;52.010;5.420;2023-10-09T05:56:11;101920.78;;;16.06;100.00
72110;BME280;59983;52.010;5.420;2023-10-09T05:58:56;101928.66;;;16.08;100.00
72110;BME280;59983;52.010;5.420;2023-10-09T06:01:42;101925.91;;;16.08;100.00
72110;BME280;59983;52.010;5.420;2023-10-09T06:04:27;101913.03;;;16.08;100.00
72110;BME280;59983;52.010;5.420;2023-10-09T06:07:12;101911.94;;;16.13;100.00
72110;BME280;59983;52.010;5.420;2023-10-09T06:09:40;101902.56;;;16.14;100.00
72110;BME280;59983;52.010;5.420;2023-10-09T06:12:17;101892.06;;;16.16;100.00
72110;BME280;59983;52.010;5.420;2023-10-09T06:15:02;101865.84;;;16.15;100.00
72110;BME280;59983;52.010;5.420;2023-10-09T06:17:47;101876.41;;;16.17;100.00
72110;BME280;59983;52.010;5.420;2023-10-09T06:20:17;101858.41;;;16.15;100.00
72110;BME280;59983;52.010;5.420;2023-10-09T06:23:13;101853.72;;;16.16;100.00
72110;BME280;59983;52.010;5.420;2023-10-09T06:25:45;101852.25;;;16.19;100.00
72110;BME280;59983;52.010;5.420;2023-10-09T06:28:18;101888.97;;;16.18;100.00
72110;BME280;59983;52.010;5.420;2023-10-09T06:30:59;101882.25;;;16.15;100.00
72110;BME280;59983;52.010;5.420;2023-10-09T06:33:45;101864.25;;;16.14;100.00
72110;BME280;59983;52.010;5.420;2023-10-09T06:36:32;101870.94;;;16.17;100.00
72110;BME280;59983;52.010;5.420;2023-10-09T06:38:58;101871.31;;;16.15;100.00
72110;BME280;59983;52.010;5.420;2023-10-09T06:41:43;101875.19;;;16.14;100.00
72110;BME280;59983;52.010;5.420;2023-10-09T06:44:11;101872.47;;;16.14;100.00
72110;BME280;59983;52.010;5.420;2023-10-09T06:46:58;101859.56;;;16.14;100.00
72110;BME280;59983;52.010;5.420;2023-10-09T06:49:34;101862.84;;;16.20;100.00
72110;BME280;59983;52.010;5.420;2023-10-09T06:52:02;101900.44;;;16.23;100.00
72110;BME280;59983;52.010;5.420;2023-10-09T06:54:42;101906.34;;;16.25;100.00
72110;BME280;59983;52.010;5.420;2023-10-09T06:57:17;101906.44;;;16.29;100.00
72110;BME280;59983;52.010;5.420;2023-10-09T07:00:04;101906.13;;;16.34;100.00
72110;BME280;59983;52.010;5.420;2023-10-09T07:02:56;101920.34;;;16.39;100.00
72110;BME280;59983;52.010;5.420;2023-10-09T07:05:24;101916.56;;;16.44;100.00
72110;BME280;59983;52.010;5.420;2023-10-09T07:07:58;101921.72;;;16.49;100.00
72110;BME280;59983;52.010;5.420;2023-10-09T07:10:44;101919.88;;;16.53;100.00
72110;BME280;59983;52.010;5.420;2023-10-09T07:13:11;101926.16;;;16.54;100.00
72110;BME280;59983;52.010;5.420;2023-10-09T07:15:42;101925.34;;;16.53;100.00
72110;BME280;59983;52.010;5.420;2023-10-09T07:18:27;101919.50;;;16.55;100.00
72110;BME280;59983;52.010;5.420;2023-10-09T07:21:14;101924.19;;;16.54;100.00
72110;BME280;59983;52.010;5.420;2023-10-09T07:23:44;101936.75;;;16.55;100.00
72110;BME280;59983;52.010;5.420;2023-10-09T07:26:15;101926.22;;;16.57;100.00
72110;BME280;59983;52.010;5.420;2023-10-09T07:28:45;101929.03;;;16.61;100.00
72110;BME280;59983;52.010;5.420;2023-10-09T07:31:19;101912.59;;;16.61;100.00
72110;BME280;59983;52.010;5.420;2023-10-09T07:33:52;101894.22;;;16.61;100.00
72110;BME280;59983;52.010;5.420;2023-10-09T07:36:23;101886.00;;;16.61;100.00
72110;BME280;59983;52.010;5.420;2023-10-09T07:39:02;101888.81;;;16.65;100.00
72110;BME280;59983;52.010;5.420;2023-10-09T07:41:43;101847.34;;;16.66;100.00
72110;BME280;59983;52.010;5.420;2023-10-09T07:44:23;101842.41;;;16.72;100.00
72110;BME280;59983;52.010;5.420;2023-10-09T07:47:05;101818.59;;;16.76;100.00
72110;BME280;59983;52.010;5.420;2023-10-09T07:49:45;101810.88;;;16.82;100.00
72110;BME280;59983;52.010;5.420;2023-10-09T07:52:20;101816.03;;;16.87;100.00
72110;BME280;59983;52.010;5.420;2023-10-09T07:54:49;101818.13;;;16.93;100.00
72110;BME280;59983;52.010;5.420;2023-10-09T07:57:28;101849.94;;;16.98;100.00
72110;BME280;59983;52.010;5.420;2023-10-09T08:00:05;101899.47;;;17.09;100.00
72110;BME280;59983;52.010;5.420;2023-10-09T08:02:39;101919.59;;;17.16;100.00
72110;BME280;59983;52.010;5.420;2023-10-09T08:05:07;101926.84;;;17.28;100.00
72110;BME280;59983;52.010;5.420;2023-10-09T08:07:46;101919.94;;;17.34;100.00
72110;BME280;59983;52.010;5.420;2023-10-09T08:10:38;101904.72;;;17.40;100.00
72110;BME280;59983;52.010;5.420;2023-10-09T08:13:24;101907.13;;;17.42;100.00
72110;BME280;59983;52.010;5.420;2023-10-09T08:16:09;101908.72;;;17.43;100.00
72110;BME280;59983;52.010;5.420;2023-10-09T08:18:43;101913.78;;;17.41;100.00
72110;BME280;59983;52.010;5.420;2023-10-09T08:21:11;101920.41;;;17.40;100.00
72110;BME280;59983;52.010;5.420;2023-10-09T08:23:38;101930.66;;;17.43;100.00
72110;BME280;59983;52.010;5.420;2023-10-09T08:26:17;101923.66;;;17.45;100.00
72110;BME280;59983;52.010;5.420;2023-10-09T08:28:56;101920.59;;;17.50;100.00
72110;BME280;59983;52.010;5.420;2023-10-09T08:31:41;101927.81;;;17.59;100.00
72110;BME280;59983;52.010;5.420;2023-10-09T08:34:23;101938.47;;;17.64;100.00
72110;BME280;59983;52.010;5.420;2023-10-09T08:36:55;101934.63;;;17.68;100.00
72110;BME280;59983;52.010;5.420;2023-10-09T08:39:22;101937.44;;;17.72;100.00
72110;BME280;59983;52.010;5.420;2023-10-09T08:41:55;101944.59;;;17.76;100.00
72110;BME280;59983;52.010;5.420;2023-10-09T08:44:26;101952.84;;;17.76;100.00
72110;BME280;59983;52.010;5.420;2023-10-09T08:46:59;101946.59;;;17.79;100.00
72110;BME280;59983;52.010;5.420;2023-10-09T08:49:26;101949.34;;;17.79;100.00
72110;BME280;59983;52.010;5.420;2023-10-09T08:51:55;101950.97;;;17.84;100.00
72110;BME280;59983;52.010;5.420;2023-10-09T08:54:22;101950.69;;;17.89;100.00
72110;BME280;59983;52.010;5.420;2023-10-09T08:56:49;101961.41;;;17.98;100.00
72110;BME280;59983;52.010;5.420;2023-10-09T08:59:18;101957.25;;;18.07;100.00
72110;BME280;59983;52.010;5.420;2023-10-09T09:01:49;101972.66;;;18.16;100.00
72110;BME280;59983;52.010;5.420;2023-10-09T09:04:41;101979.44;;;18.22;100.00
72110;BME280;59983;52.010;5.420;2023-10-09T09:07:27;101970.06;;;18.26;100.00
72110;BME280;59983;52.010;5.420;2023-10-09T09:09:59;101979.97;;;18.31;100.00
72110;BME280;59983;52.010;5.420;2023-10-09T09:12:44;101978.44;;;18.33;100.00
72110;BME280;59983;52.010;5.420;2023-10-09T09:15:15;101976.50;;;18.37;100.00
72110;BME280;59983;52.010;5.420;2023-10-09T09:17:46;101980.91;;;18.42;100.00
72110;BME280;59983;52.010;5.420;2023-10-09T09:20:23;101958.56;;;18.44;100.00
72110;BME280;59983;52.010;5.420;2023-10-09T09:22:55;101970.75;;;18.46;100.00
72110;BME280;59983;52.010;5.420;2023-10-09T09:25:40;101971.59;;;18.50;100.00
72110;BME280;59983;52.010;5.420;2023-10-09T09:28:25;101976.41;;;18.57;100.00
72110;BME280;59983;52.010;5.420;2023-10-09T09:30:53;101986.28;;;18.61;100.00
72110;BME280;59983;52.010;5.420;2023-10-09T09:33:27;101991.53;;;18.70;100.00
72110;BME280;59983;52.010;5.420;2023-10-09T09:36:00;101997.50;;;18.76;100.00
72110;BME280;59983;52.010;5.420;2023-10-09T09:38:32;101996.75;;;18.79;100.00
72110;BME280;59983;52.010;5.420;2023-10-09T09:41:18;101992.91;;;18.83;100.00
72110;BME280;59983;52.010;5.420;2023-10-09T09:43:58;102000.00;;;18.88;100.00
72110;BME280;59983;52.010;5.420;2023-10-09T09:46:31;101994.94;;;18.90;100.00
72110;BME280;59983;52.010;5.420;2023-10-09T09:49:02;101997.31;;;18.91;100.00
72110;BME280;59983;52.010;5.420;2023-10-09T09:51:31;102003.66;;;18.95;100.00
72110;BME280;59983;52.010;5.420;2023-10-09T09:53:57;101991.53;;;19.00;100.00
72110;BME280;59983;52.010;5.420;2023-10-09T09:56:25;101987.25;;;19.03;100.00
72110;BME280;59983;52.010;5.420;2023-10-09T09:58:52;101990.81;;;19.07;100.00
72110;BME280;59983;52.010;5.420;2023-10-09T10:01:29;101990.09;;;19.10;100.00
72110;BME280;59983;52.010;5.420;2023-10-09T10:04:02;101983.41;;;19.11;100.00
72110;BME280;59983;52.010;5.420;2023-10-09T10:06:31;101985.81;;;19.16;100.00
72110;BME280;59983;52.010;5.420;2023-10-09T10:08:59;101987.81;;;19.19;100.00
72110;BME280;59983;52.010;5.420;2023-10-09T10:11:45;101996.91;;;19.23;100.00
72110;BME280;59983;52.010;5.420;2023-10-09T10:14:13;101992.59;;;19.25;100.00
72110;BME280;59983;52.010;5.420;2023-10-09T10:19:58;101982.81;;;19.28;100.00
72110;BME280;59983;52.010;5.420;2023-10-09T10:22:27;101990.72;;;19.33;100.00
72110;BME280;59983;52.010;5.420;2023-10-09T10:24:54;101990.38;;;19.35;100.00
72110;BME280;59983;52.010;5.420;2023-10-09T10:27:22;101990.00;;;19.40;100.00
72110;BME280;59983;52.010;5.420;2023-10-09T10:32:58;101986.94;;;19.48;100.00
72110;BME280;59983;52.010;5.420;2023-10-09T10:35:36;102000.44;;;19.57;100.00
72110;BME280;59983;52.010;5.420;2023-10-09T10:38:32;102004.84;;;19.65;100.00
72110;BME280;59983;52.010;5.420;2023-10-09T10:43:44;102014.00;;;19.76;100.00
72110;BME280;59983;52.010;5.420;2023-10-09T10:46:18;102001.84;;;19.81;100.00
72110;BME280;59983;52.010;5.420;2023-10-09T10:48:52;101997.53;;;19.84;100.00
72110;BME280;59983;52.010;5.420;2023-10-09T10:51:38;101992.41;;;19.82;100.00
72110;BME280;59983;52.010;5.420;2023-10-09T10:54:06;101994.06;;;19.90;100.00
72110;BME280;59983;52.010;5.420;2023-10-09T10:56:51;102002.03;;;20.02;100.00
72110;BME280;59983;52.010;5.420;2023-10-09T10:59:19;101991.06;;;20.06;100.00
72110;BME280;59983;52.010;5.420;2023-10-09T11:01:55;102000.44;;;20.01;100.00
72110;BME280;59983;52.010;5.420;2023-10-09T11:04:28;101995.31;;;20.00;100.00
72110;BME280;59983;52.010;5.420;2023-10-09T11:06:59;102001.63;;;20.04;100.00
72110;BME280;59983;52.010;5.420;2023-10-09T11:09:53;102001.69;;;20.07;100.00
72110;BME280;59983;52.010;5.420;2023-10-09T11:12:26;102001.75;;;20.15;100.00
72110;BME280;59983;52.010;5.420;2023-10-09T11:15:14;101999.00;;;20.15;100.00
72110;BME280;59983;52.010;5.420;2023-10-09T11:18:03;101996.63;;;20.17;100.00
72110;BME280;59983;52.010;5.420;2023-10-09T11:20:57;101996.63;;;20.17;100.00
72110;BME280;59983;52.010;5.420;2023-10-09T11:23:31;101988.00;;;20.18;100.00
72110;BME280;59983;52.010;5.420;2023-10-09T11:26:05;101995.84;;;20.16;100.00
72110;BME280;59983;52.010;5.420;2023-10-09T11:29:25;101991.13;;;20.17;100.00
72110;BME280;59983;52.010;5.420;2023-10-09T11:32:18;102000.97;;;20.18;100.00
72110;BME280;59983;52.010;5.420;2023-10-09T11:34:46;102004.13;;;20.16;100.00
72110;BME280;59983;52.010;5.420;2023-10-09T11:37:24;102004.91;;;20.17;100.00
72110;BME280;59983;52.010;5.420;2023-10-09T11:39:58;101997.06;;;20.22;100.00
72110;BME280;59983;52.010;5.420;2023-10-09T11:42:27;101983.28;;;20.22;100.00
72110;BME280;59983;52.010;5.420;2023-10-09T11:45:27;101986.47;;;20.28;100.00
72110;BME280;59983;52.010;5.420;2023-10-09T11:48:17;101993.22;;;20.34;100.00
72110;BME280;59983;52.010;5.420;2023-10-09T11:50:59;101997.56;;;20.35;100.00
72110;BME280;59983;52.010;5.420;2023-10-09T11:53:28;101993.63;;;20.36;100.00
72110;BME280;59983;52.010;5.420;2023-10-09T11:55:55;101997.56;;;20.35;100.00
72110;BME280;59983;52.010;5.420;2023-10-09T11:58:22;102000.31;;;20.35;100.00
72110;BME280;59983;52.010;5.420;2023-10-09T12:03:17;101978.66;;;20.41;100.00
72110;BME280;59983;52.010;5.420;2023-10-09T12:05:48;101980.31;;;20.45;100.00
72110;BME280;59983;52.010;5.420;2023-10-09T12:08:14;101976.34;;;20.43;100.00
72110;BME280;59983;52.010;5.420;2023-10-09T12:10:42;101981.81;;;20.39;100.00
72110;BME280;59983;52.010;5.420;2023-10-09T12:13:09;101988.50;;;20.38;100.00
72110;BME280;59983;52.010;5.420;2023-10-09T12:15:36;101988.91;;;20.40;100.00
72110;BME280;59983;52.010;5.420;2023-10-09T12:18:08;101975.13;;;20.40;100.00
72110;BME280;59983;52.010;5.420;2023-10-09T12:20:38;101972.81;;;20.42;100.00
72110;BME280;59983;52.010;5.420;2023-10-09T12:23:05;101973.66;;;20.50;100.00
72110;BME280;59983;52.010;5.420;2023-10-09T12:25:33;101973.22;;;20.48;100.00
72110;BME280;59983;52.010;5.420;2023-10-09T12:28:02;101964.19;;;20.47;100.00
72110;BME280;59983;52.010;5.420;2023-10-09T12:30:29;101965.75;;;20.45;100.00
72110;BME280;59983;52.010;5.420;2023-10-09T12:32:57;101963.31;;;20.40;100.00
72110;BME280;59983;52.010;5.420;2023-10-09T12:35:25;101962.13;;;20.37;100.00
72110;BME280;59983;52.010;5.420;2023-10-09T12:37:52;101970.38;;;20.33;100.00
72110;BME280;59983;52.010;5.420;2023-10-09T12:40:22;101965.66;;;20.34;100.00
72110;BME280;59983;52.010;5.420;2023-10-09T12:42:55;101964.47;;;20.35;100.00
72110;BME280;59983;52.010;5.420;2023-10-09T12:45:26;101961.34;;;20.36;100.00
72110;BME280;59983;52.010;5.420;2023-10-09T12:47:56;101955.03;;;20.32;100.00
72110;BME280;59983;52.010;5.420;2023-10-09T12:50:26;101970.38;;;20.33;100.00
72110;BME280;59983;52.010;5.420;2023-10-09T12:52:56;101965.66;;;20.34;100.00
72110;BME280;59983;52.010;5.420;2023-10-09T12:55:22;101966.06;;;20.32;100.00
72110;BME280;59983;52.010;5.420;2023-10-09T12:58:01;101966.00;;;20.29;100.00
72110;BME280;59983;52.010;5.420;2023-10-09T13:00:37;101971.91;;;20.27;100.00
72110;BME280;59983;52.010;5.420;2023-10-09T13:03:11;101973.88;;;20.30;100.00
72110;BME280;59983;52.010;5.420;2023-10-09T13:05:50;101979.44;;;20.34;100.00
72110;BME280;59983;52.010;5.420;2023-10-09T13:08:24;101983.41;;;20.40;100.00
72110;BME280;59983;52.010;5.420;2023-10-09T13:11:05;101980.31;;;20.45;100.00
72110;BME280;59983;52.010;5.420;2023-10-09T13:13:40;101985.84;;;20.45;100.00
72110;BME280;59983;52.010;5.420;2023-10-09T13:16:15;101987.41;;;20.46;100.00
72110;BME280;59983;52.010;5.420;2023-10-09T13:18:56;101987.03;;;20.48;100.00
72110;BME280;59983;52.010;5.420;2023-10-09T13:21:25;101985.06;;;20.48;100.00
72110;BME280;59983;52.010;5.420;2023-10-09T13:23:58;101978.75;;;20.48;100.00
72110;BME280;59983;52.010;5.420;2023-10-09T13:26:26;101980.31;;;20.49;100.00
72110;BME280;59983;52.010;5.420;2023-10-09T13:29:00;101978.75;;;20.48;100.00
72110;BME280;59983;52.010;5.420;2023-10-09T13:31:29;101978.00;;;20.51;100.00
72110;BME280;59983;52.010;5.420;2023-10-09T13:33:58;101982.34;;;20.55;100.00
72110;BME280;59983;52.010;5.420;2023-10-09T13:36:26;101987.84;;;20.55;100.00